sensor_id;sensor_type;location;lat;lon;timestamp;P1;durP1;ratioP1;P2;durP2;ratioP2
61572;SDS011;47465;43.094;12.434;2023-02-12T00:02:14;9.63;;;8.07;;
61572;SDS011;47465;43.094;12.434;2023-02-12T00:04:41;8.77;;;7.80;;
61572;SDS011;47465;43.094;12.434;2023-02-12T00:07:07;13.50;;;9.35;;
61572;SDS011;47465;43.094;12.434;2023-02-12T00:09:33;10.65;;;8.20;;
61572;SDS011;47465;43.094;12.434;2023-02-12T00:11:59;8.95;;;7.15;;
61572;SDS011;47465;43.094;12.434;2023-02-12T00:14:25;9.02;;;7.43;;
61572;SDS011;47465;43.094;12.434;2023-02-12T00:16:51;9.45;;;7.32;;
61572;SDS011;47465;43.094;12.434;2023-02-12T00:19:18;8.95;;;7.07;;
61572;SDS011;47465;43.094;12.434;2023-02-12T00:21:44;8.93;;;7.00;;
61572;SDS011;47465;43.094;12.434;2023-02-12T00:24:10;9.70;;;7.47;;
61572;SDS011;47465;43.094;12.434;2023-02-12T00:26:36;8.98;;;7.07;;
61572;SDS011;47465;43.094;12.434;2023-02-12T00:29:02;10.32;;;7.70;;
61572;SDS011;47465;43.094;12.434;2023-02-12T00:31:29;9.43;;;7.43;;
61572;SDS011;47465;43.094;12.434;2023-02-12T00:33:55;9.45;;;7.43;;
61572;SDS011;47465;43.094;12.434;2023-02-12T00:36:24;9.90;;;7.07;;
61572;SDS011;47465;43.094;12.434;2023-02-12T00:38:52;10.73;;;7.57;;
61572;SDS011;47465;43.094;12.434;2023-02-12T00:41:20;9.23;;;7.63;;
61572;SDS011;47465;43.094;12.434;2023-02-12T00:43:47;8.90;;;7.43;;
61572;SDS011;47465;43.094;12.434;2023-02-12T00:46:13;9.18;;;7.55;;
61572;SDS011;47465;43.094;12.434;2023-02-12T00:48:39;11.63;;;7.35;;
61572;SDS011;47465;43.094;12.434;2023-02-12T00:51:05;9.38;;;7.13;;
61572;SDS011;47465;43.094;12.434;2023-02-12T00:53:33;10.30;;;7.78;;
61572;SDS011;47465;43.094;12.434;2023-02-12T00:55:59;8.48;;;7.30;;
61572;SDS011;47465;43.094;12.434;2023-02-12T00:58:25;11.68;;;7.22;;
61572;SDS011;47465;43.094;12.434;2023-02-12T01:00:51;10.27;;;7.60;;
61572;SDS011;47465;43.094;12.434;2023-02-12T01:03:18;10.18;;;7.88;;
61572;SDS011;47465;43.094;12.434;2023-02-12T01:05:44;8.18;;;7.10;;
61572;SDS011;47465;43.094;12.434;2023-02-12T01:08:11;11.00;;;8.07;;
61572;SDS011;47465;43.094;12.434;2023-02-12T01:10:39;12.30;;;9.40;;
61572;SDS011;47465;43.094;12.434;2023-02-12T01:13:06;9.18;;;7.82;;
61572;SDS011;47465;43.094;12.434;2023-02-12T01:15:32;10.50;;;7.82;;
61572;SDS011;47465;43.094;12.434;2023-02-12T01:17:57;11.23;;;8.00;;
61572;SDS011;47465;43.094;12.434;2023-02-12T01:20:24;10.23;;;7.65;;
61572;SDS011;47465;43.094;12.434;2023-02-12T01:22:50;10.38;;;7.90;;
61572;SDS011;47465;43.094;12.434;2023-02-12T01:25:16;10.52;;;8.13;;
61572;SDS011;47465;43.094;12.434;2023-02-12T01:27:44;9.48;;;7.88;;
61572;SDS011;47465;43.094;12.434;2023-02-12T01:30:10;11.43;;;9.15;;
61572;SDS011;47465;43.094;12.434;2023-02-12T01:32:38;11.63;;;8.65;;
61572;SDS011;47465;43.094;12.434;2023-02-12T01:35:05;9.57;;;8.38;;
61572;SDS011;47465;43.094;12.434;2023-02-12T01:37:34;8.93;;;7.20;;
61572;SDS011;47465;43.094;12.434;2023-02-12T01:40:00;9.15;;;6.97;;
61572;SDS011;47465;43.094;12.434;2023-02-12T01:42:26;9.13;;;7.18;;
61572;SDS011;47465;43.094;12.434;2023-02-12T01:47:55;8.95;;;6.95;;
61572;SDS011;47465;43.094;12.434;2023-02-12T01:50:25;11.38;;;8.10;;
61572;SDS011;47465;43.094;12.434;2023-02-12T01:52:52;7.82;;;6.72;;
61572;SDS011;47465;43.094;12.434;2023-02-12T01:55:20;9.85;;;6.78;;
61572;SDS011;47465;43.094;12.434;2023-02-12T01:57:47;7.82;;;6.50;;
61572;SDS011;47465;43.094;12.434;2023-02-12T02:00:14;9.93;;;6.78;;
61572;SDS011;47465;43.094;12.434;2023-02-12T02:02:41;9.63;;;6.75;;
61572;SDS011;47465;43.094;12.434;2023-02-12T02:05:10;10.98;;;7.55;;
61572;SDS011;47465;43.094;12.434;2023-02-12T02:07:39;9.95;;;7.00;;
61572;SDS011;47465;43.094;12.434;2023-02-12T02:10:08;10.45;;;7.68;;
61572;SDS011;47465;43.094;12.434;2023-02-12T02:12:34;9.60;;;7.72;;
61572;SDS011;47465;43.094;12.434;2023-02-12T02:15:35;9.55;;;7.60;;
61572;SDS011;47465;43.094;12.434;2023-02-12T02:18:05;9.98;;;7.88;;
61572;SDS011;47465;43.094;12.434;2023-02-12T02:20:40;11.52;;;8.52;;
61572;SDS011;47465;43.094;12.434;2023-02-12T02:23:29;9.00;;;7.28;;
61572;SDS011;47465;43.094;12.434;2023-02-12T02:29:10;9.93;;;7.50;;
61572;SDS011;47465;43.094;12.434;2023-02-12T02:31:46;8.70;;;7.00;;
61572;SDS011;47465;43.094;12.434;2023-02-12T02:34:23;8.68;;;7.55;;
61572;SDS011;47465;43.094;12.434;2023-02-12T02:36:59;9.20;;;7.25;;
61572;SDS011;47465;43.094;12.434;2023-02-12T02:39:32;9.73;;;7.15;;
61572;SDS011;47465;43.094;12.434;2023-02-12T02:42:05;10.48;;;7.82;;
61572;SDS011;47465;43.094;12.434;2023-02-12T02:44:34;10.57;;;8.00;;
61572;SDS011;47465;43.094;12.434;2023-02-12T02:47:05;9.20;;;7.00;;
61572;SDS011;47465;43.094;12.434;2023-02-12T02:49:34;8.55;;;6.70;;
61572;SDS011;47465;43.094;12.434;2023-02-12T02:52:05;7.38;;;5.63;;
61572;SDS011;47465;43.094;12.434;2023-02-12T02:57:04;6.75;;;5.10;;
61572;SDS011;47465;43.094;12.434;2023-02-12T02:59:33;9.05;;;5.93;;
61572;SDS011;47465;43.094;12.434;2023-02-12T03:02:05;7.95;;;5.72;;
61572;SDS011;47465;43.094;12.434;2023-02-12T03:04:38;8.38;;;6.20;;
61572;SDS011;47465;43.094;12.434;2023-02-12T03:07:09;7.30;;;5.78;;
61572;SDS011;47465;43.094;12.434;2023-02-12T03:09:39;8.05;;;5.47;;
61572;SDS011;47465;43.094;12.434;2023-02-12T03:12:11;8.50;;;6.28;;
61572;SDS011;47465;43.094;12.434;2023-02-12T03:14:39;6.88;;;5.60;;
61572;SDS011;47465;43.094;12.434;2023-02-12T03:17:17;7.25;;;6.28;;
61572;SDS011;47465;43.094;12.434;2023-02-12T03:19:48;7.28;;;6.20;;
61572;SDS011;47465;43.094;12.434;2023-02-12T03:22:17;8.30;;;6.53;;
61572;SDS011;47465;43.094;12.434;2023-02-12T03:24:48;8.65;;;6.50;;
61572;SDS011;47465;43.094;12.434;2023-02-12T03:27:18;6.50;;;5.25;;
61572;SDS011;47465;43.094;12.434;2023-02-12T03:29:47;7.97;;;5.68;;
61572;SDS011;47465;43.094;12.434;2023-02-12T03:32:25;8.18;;;6.35;;
61572;SDS011;47465;43.094;12.434;2023-02-12T03:34:57;9.45;;;6.32;;
61572;SDS011;47465;43.094;12.434;2023-02-12T03:37:33;8.82;;;6.80;;
61572;SDS011;47465;43.094;12.434;2023-02-12T03:40:04;7.35;;;5.90;;
61572;SDS011;47465;43.094;12.434;2023-02-12T03:42:41;6.40;;;5.40;;
61572;SDS011;47465;43.094;12.434;2023-02-12T03:45:13;8.25;;;5.70;;
61572;SDS011;47465;43.094;12.434;2023-02-12T03:47:48;8.63;;;6.18;;
61572;SDS011;47465;43.094;12.434;2023-02-12T03:50:21;11.07;;;6.07;;
61572;SDS011;47465;43.094;12.434;2023-02-12T03:52:56;8.50;;;6.05;;
61572;SDS011;47465;43.094;12.434;2023-02-12T03:55:22;7.40;;;6.03;;
61572;SDS011;47465;43.094;12.434;2023-02-12T03:57:49;8.55;;;6.95;;
61572;SDS011;47465;43.094;12.434;2023-02-12T04:00:20;7.57;;;6.25;;
61572;SDS011;47465;43.094;12.434;2023-02-12T04:02:49;8.90;;;6.83;;
61572;SDS011;47465;43.094;12.434;2023-02-12T04:05:18;9.20;;;7.10;;
61572;SDS011;47465;43.094;12.434;2023-02-12T04:07:44;8.60;;;6.97;;
61572;SDS011;47465;43.094;12.434;2023-02-12T04:10:11;11.85;;;7.80;;
61572;SDS011;47465;43.094;12.434;2023-02-12T04:12:38;9.20;;;7.25;;
61572;SDS011;47465;43.094;12.434;2023-02-12T04:15:14;12.15;;;7.30;;
61572;SDS011;47465;43.094;12.434;2023-02-12T04:18:00;9.57;;;7.17;;
61572;SDS011;47465;43.094;12.434;2023-02-12T04:20:34;9.00;;;6.95;;
61572;SDS011;47465;43.094;12.434;2023-02-12T04:23:10;9.52;;;6.78;;
61572;SDS011;47465;43.094;12.434;2023-02-12T04:25:44;8.10;;;6.75;;
61572;SDS011;47465;43.094;12.434;2023-02-12T04:28:20;9.30;;;6.85;;
61572;SDS011;47465;43.094;12.434;2023-02-12T04:30:55;8.93;;;6.85;;
61572;SDS011;47465;43.094;12.434;2023-02-12T04:33:27;8.50;;;6.57;;
61572;SDS011;47465;43.094;12.434;2023-02-12T04:35:59;9.50;;;7.10;;
61572;SDS011;47465;43.094;12.434;2023-02-12T04:38:29;9.88;;;6.53;;
61572;SDS011;47465;43.094;12.434;2023-02-12T04:41:00;7.82;;;6.22;;
61572;SDS011;47465;43.094;12.434;2023-02-12T04:43:30;8.75;;;6.30;;
61572;SDS011;47465;43.094;12.434;2023-02-12T04:45:59;9.40;;;6.68;;
61572;SDS011;47465;43.094;12.434;2023-02-12T04:48:27;8.05;;;6.15;;
61572;SDS011;47465;43.094;12.434;2023-02-12T04:50:53;7.10;;;6.07;;
61572;SDS011;47465;43.094;12.434;2023-02-12T04:53:18;9.50;;;6.20;;
61572;SDS011;47465;43.094;12.434;2023-02-12T04:55:44;7.85;;;5.75;;
61572;SDS011;47465;43.094;12.434;2023-02-12T04:58:11;8.68;;;5.85;;
61572;SDS011;47465;43.094;12.434;2023-02-12T05:00:37;7.53;;;6.15;;
61572;SDS011;47465;43.094;12.434;2023-02-12T05:03:04;7.60;;;6.18;;
61572;SDS011;47465;43.094;12.434;2023-02-12T05:05:31;8.02;;;6.10;;
61572;SDS011;47465;43.094;12.434;2023-02-12T05:07:57;8.02;;;5.70;;
61572;SDS011;47465;43.094;12.434;2023-02-12T05:10:23;7.15;;;5.95;;
61572;SDS011;47465;43.094;12.434;2023-02-12T05:12:50;7.82;;;5.75;;
61572;SDS011;47465;43.094;12.434;2023-02-12T05:15:17;8.50;;;6.30;;
61572;SDS011;47465;43.094;12.434;2023-02-12T05:17:43;8.50;;;6.93;;
61572;SDS011;47465;43.094;12.434;2023-02-12T05:20:10;8.50;;;6.72;;
61572;SDS011;47465;43.094;12.434;2023-02-12T05:22:38;7.18;;;6.25;;
61572;SDS011;47465;43.094;12.434;2023-02-12T05:25:04;8.98;;;6.78;;
61572;SDS011;47465;43.094;12.434;2023-02-12T05:27:30;8.35;;;6.68;;
61572;SDS011;47465;43.094;12.434;2023-02-12T05:29:56;8.07;;;6.25;;
61572;SDS011;47465;43.094;12.434;2023-02-12T05:32:22;6.82;;;5.95;;
61572;SDS011;47465;43.094;12.434;2023-02-12T05:34:48;7.78;;;5.78;;
61572;SDS011;47465;43.094;12.434;2023-02-12T05:37:14;6.72;;;5.50;;
61572;SDS011;47465;43.094;12.434;2023-02-12T05:39:41;6.30;;;5.35;;
61572;SDS011;47465;43.094;12.434;2023-02-12T05:42:07;7.03;;;5.95;;
61572;SDS011;47465;43.094;12.434;2023-02-12T05:44:33;7.70;;;5.75;;
61572;SDS011;47465;43.094;12.434;2023-02-12T05:46:59;7.30;;;6.07;;
61572;SDS011;47465;43.094;12.434;2023-02-12T05:49:24;7.50;;;6.53;;
61572;SDS011;47465;43.094;12.434;2023-02-12T05:51:50;8.00;;;6.57;;
61572;SDS011;47465;43.094;12.434;2023-02-12T05:54:16;8.07;;;6.18;;
61572;SDS011;47465;43.094;12.434;2023-02-12T05:56:44;11.75;;;6.10;;
61572;SDS011;47465;43.094;12.434;2023-02-12T05:59:12;7.82;;;5.97;;
61572;SDS011;47465;43.094;12.434;2023-02-12T06:01:40;9.05;;;5.97;;
61572;SDS011;47465;43.094;12.434;2023-02-12T06:04:09;7.57;;;6.00;;
61572;SDS011;47465;43.094;12.434;2023-02-12T06:06:38;7.38;;;5.55;;
61572;SDS011;47465;43.094;12.434;2023-02-12T06:09:06;7.43;;;5.90;;
61572;SDS011;47465;43.094;12.434;2023-02-12T06:11:32;6.97;;;5.72;;
61572;SDS011;47465;43.094;12.434;2023-02-12T06:14:01;7.30;;;6.00;;
61572;SDS011;47465;43.094;12.434;2023-02-12T06:16:28;7.88;;;6.13;;
61572;SDS011;47465;43.094;12.434;2023-02-12T06:18:54;7.88;;;6.15;;
61572;SDS011;47465;43.094;12.434;2023-02-12T06:21:21;7.07;;;6.30;;
61572;SDS011;47465;43.094;12.434;2023-02-12T06:23:48;8.40;;;6.30;;
61572;SDS011;47465;43.094;12.434;2023-02-12T06:26:16;9.05;;;6.55;;
61572;SDS011;47465;43.094;12.434;2023-02-12T06:28:42;9.30;;;6.40;;
61572;SDS011;47465;43.094;12.434;2023-02-12T06:31:17;8.43;;;6.38;;
61572;SDS011;47465;43.094;12.434;2023-02-12T06:33:44;7.78;;;6.72;;
61572;SDS011;47465;43.094;12.434;2023-02-12T06:36:10;7.95;;;6.10;;
61572;SDS011;47465;43.094;12.434;2023-02-12T06:38:36;6.80;;;5.72;;
61572;SDS011;47465;43.094;12.434;2023-02-12T06:41:02;7.43;;;5.88;;
61572;SDS011;47465;43.094;12.434;2023-02-12T06:43:28;7.32;;;6.07;;
61572;SDS011;47465;43.094;12.434;2023-02-12T06:45:53;8.45;;;6.30;;
61572;SDS011;47465;43.094;12.434;2023-02-12T06:48:21;7.88;;;6.60;;
61572;SDS011;47465;43.094;12.434;2023-02-12T06:50:47;10.00;;;7.35;;
61572;SDS011;47465;43.094;12.434;2023-02-12T06:53:12;9.02;;;7.50;;
61572;SDS011;47465;43.094;12.434;2023-02-12T06:55:38;10.75;;;8.40;;
61572;SDS011;47465;43.094;12.434;2023-02-12T06:58:04;9.57;;;7.20;;
61572;SDS011;47465;43.094;12.434;2023-02-12T07:00:30;9.38;;;7.07;;
61572;SDS011;47465;43.094;12.434;2023-02-12T07:02:56;8.43;;;7.55;;
61572;SDS011;47465;43.094;12.434;2023-02-12T07:05:23;8.60;;;7.18;;
61572;SDS011;47465;43.094;12.434;2023-02-12T07:07:49;8.35;;;6.70;;
61572;SDS011;47465;43.094;12.434;2023-02-12T07:10:15;8.48;;;6.85;;
61572;SDS011;47465;43.094;12.434;2023-02-12T07:12:41;8.32;;;6.95;;
61572;SDS011;47465;43.094;12.434;2023-02-12T07:15:07;8.50;;;6.38;;
61572;SDS011;47465;43.094;12.434;2023-02-12T07:17:34;8.63;;;6.10;;
61572;SDS011;47465;43.094;12.434;2023-02-12T07:20:00;7.35;;;6.18;;
61572;SDS011;47465;43.094;12.434;2023-02-12T07:22:27;9.20;;;6.53;;
61572;SDS011;47465;43.094;12.434;2023-02-12T07:24:53;9.23;;;7.75;;
61572;SDS011;47465;43.094;12.434;2023-02-12T07:27:19;8.82;;;7.15;;
61572;SDS011;47465;43.094;12.434;2023-02-12T07:29:45;9.63;;;6.80;;
61572;SDS011;47465;43.094;12.434;2023-02-12T07:32:10;9.98;;;7.55;;
61572;SDS011;47465;43.094;12.434;2023-02-12T07:34:36;12.07;;;7.57;;
61572;SDS011;47465;43.094;12.434;2023-02-12T07:37:02;9.98;;;7.95;;
61572;SDS011;47465;43.094;12.434;2023-02-12T07:39:29;9.82;;;7.80;;
61572;SDS011;47465;43.094;12.434;2023-02-12T07:41:55;10.63;;;8.10;;
61572;SDS011;47465;43.094;12.434;2023-02-12T07:44:22;9.13;;;8.05;;
61572;SDS011;47465;43.094;12.434;2023-02-12T07:46:48;7.40;;;6.18;;
61572;SDS011;47465;43.094;12.434;2023-02-12T07:49:15;6.88;;;6.13;;
61572;SDS011;47465;43.094;12.434;2023-02-12T07:51:42;7.97;;;6.72;;
61572;SDS011;47465;43.094;12.434;2023-02-12T07:54:08;10.07;;;7.57;;
61572;SDS011;47465;43.094;12.434;2023-02-12T07:56:37;8.90;;;6.60;;
61572;SDS011;47465;43.094;12.434;2023-02-12T07:59:04;9.57;;;6.90;;
61572;SDS011;47465;43.094;12.434;2023-02-12T08:01:32;7.85;;;6.20;;
61572;SDS011;47465;43.094;12.434;2023-02-12T08:04:00;7.30;;;6.25;;
61572;SDS011;47465;43.094;12.434;2023-02-12T08:06:28;7.45;;;6.47;;
61572;SDS011;47465;43.094;12.434;2023-02-12T08:08:55;8.35;;;6.60;;
61572;SDS011;47465;43.094;12.434;2023-02-12T08:11:22;7.88;;;6.50;;
61572;SDS011;47465;43.094;12.434;2023-02-12T08:13:51;7.40;;;5.95;;
61572;SDS011;47465;43.094;12.434;2023-02-12T08:16:18;8.25;;;6.68;;
61572;SDS011;47465;43.094;12.434;2023-02-12T08:18:45;8.30;;;6.60;;
61572;SDS011;47465;43.094;12.434;2023-02-12T08:21:12;7.85;;;6.18;;
61572;SDS011;47465;43.094;12.434;2023-02-12T08:23:40;7.75;;;6.20;;
61572;SDS011;47465;43.094;12.434;2023-02-12T08:26:07;7.78;;;6.18;;
61572;SDS011;47465;43.094;12.434;2023-02-12T08:28:34;7.80;;;6.43;;
61572;SDS011;47465;43.094;12.434;2023-02-12T08:31:03;7.97;;;6.82;;
61572;SDS011;47465;43.094;12.434;2023-02-12T08:33:31;8.88;;;6.82;;
61572;SDS011;47465;43.094;12.434;2023-02-12T08:36:00;7.18;;;6.43;;
61572;SDS011;47465;43.094;12.434;2023-02-12T08:38:27;7.10;;;6.22;;
61572;SDS011;47465;43.094;12.434;2023-02-12T08:40:53;7.80;;;6.45;;
61572;SDS011;47465;43.094;12.434;2023-02-12T08:43:19;8.30;;;6.50;;
61572;SDS011;47465;43.094;12.434;2023-02-12T08:45:45;8.55;;;6.38;;
61572;SDS011;47465;43.094;12.434;2023-02-12T08:48:12;7.60;;;5.85;;
61572;SDS011;47465;43.094;12.434;2023-02-12T08:50:38;7.60;;;6.45;;
61572;SDS011;47465;43.094;12.434;2023-02-12T08:53:04;7.30;;;6.07;;
61572;SDS011;47465;43.094;12.434;2023-02-12T08:55:31;7.38;;;6.38;;
61572;SDS011;47465;43.094;12.434;2023-02-12T08:57:57;7.22;;;6.05;;
61572;SDS011;47465;43.094;12.434;2023-02-12T09:00:23;7.68;;;6.25;;
61572;SDS011;47465;43.094;12.434;2023-02-12T09:02:49;7.38;;;6.35;;
61572;SDS011;47465;43.094;12.434;2023-02-12T09:05:17;7.28;;;6.57;;
61572;SDS011;47465;43.094;12.434;2023-02-12T09:07:43;8.38;;;6.47;;
61572;SDS011;47465;43.094;12.434;2023-02-12T09:10:09;8.18;;;6.82;;
61572;SDS011;47465;43.094;12.434;2023-02-12T09:12:35;8.45;;;6.78;;
61572;SDS011;47465;43.094;12.434;2023-02-12T09:15:01;7.45;;;6.70;;
61572;SDS011;47465;43.094;12.434;2023-02-12T09:17:27;7.80;;;6.97;;
61572;SDS011;47465;43.094;12.434;2023-02-12T09:19:54;7.30;;;6.45;;
61572;SDS011;47465;43.094;12.434;2023-02-12T09:22:23;8.18;;;6.88;;
61572;SDS011;47465;43.094;12.434;2023-02-12T09:24:49;7.80;;;6.53;;
61572;SDS011;47465;43.094;12.434;2023-02-12T09:27:15;7.60;;;6.63;;
61572;SDS011;47465;43.094;12.434;2023-02-12T09:29:40;9.50;;;6.95;;
61572;SDS011;47465;43.094;12.434;2023-02-12T09:32:06;8.18;;;6.78;;
61572;SDS011;47465;43.094;12.434;2023-02-12T09:34:33;8.57;;;7.03;;
61572;SDS011;47465;43.094;12.434;2023-02-12T09:36:59;8.20;;;6.20;;
61572;SDS011;47465;43.094;12.434;2023-02-12T09:39:27;7.93;;;7.05;;
61572;SDS011;47465;43.094;12.434;2023-02-12T09:42:01;8.95;;;7.45;;
61572;SDS011;47465;43.094;12.434;2023-02-12T09:44:40;7.97;;;7.15;;
61572;SDS011;47465;43.094;12.434;2023-02-12T09:47:16;8.27;;;7.25;;
61572;SDS011;47465;43.094;12.434;2023-02-12T09:50:02;9.07;;;7.63;;
61572;SDS011;47465;43.094;12.434;2023-02-12T09:52:37;9.23;;;7.68;;
61572;SDS011;47465;43.094;12.434;2023-02-12T09:55:08;8.90;;;8.00;;
61572;SDS011;47465;43.094;12.434;2023-02-12T09:57:38;8.73;;;7.32;;
61572;SDS011;47465;43.094;12.434;2023-02-12T10:00:05;9.60;;;7.65;;
61572;SDS011;47465;43.094;12.434;2023-02-12T10:02:33;8.35;;;7.45;;
61572;SDS011;47465;43.094;12.434;2023-02-12T10:05:00;8.65;;;7.10;;
61572;SDS011;47465;43.094;12.434;2023-02-12T10:07:30;8.88;;;7.40;;
61572;SDS011;47465;43.094;12.434;2023-02-12T10:10:28;8.35;;;7.40;;
61572;SDS011;47465;43.094;12.434;2023-02-12T10:13:07;8.50;;;7.50;;
61572;SDS011;47465;43.094;12.434;2023-02-12T10:15:43;8.15;;;7.30;;
61572;SDS011;47465;43.094;12.434;2023-02-12T10:18:18;8.52;;;7.22;;
61572;SDS011;47465;43.094;12.434;2023-02-12T10:21:03;8.52;;;7.63;;
61572;SDS011;47465;43.094;12.434;2023-02-12T10:23:43;8.43;;;7.07;;
61572;SDS011;47465;43.094;12.434;2023-02-12T10:26:34;8.63;;;7.72;;
61572;SDS011;47465;43.094;12.434;2023-02-12T10:29:08;8.35;;;7.45;;
61572;SDS011;47465;43.094;12.434;2023-02-12T10:31:39;8.23;;;7.43;;
61572;SDS011;47465;43.094;12.434;2023-02-12T10:34:12;8.60;;;7.50;;
61572;SDS011;47465;43.094;12.434;2023-02-12T10:36:42;8.50;;;7.60;;
61572;SDS011;47465;43.094;12.434;2023-02-12T10:39:11;9.02;;;8.13;;
61572;SDS011;47465;43.094;12.434;2023-02-12T10:41:46;8.90;;;7.63;;
61572;SDS011;47465;43.094;12.434;2023-02-12T10:44:17;8.98;;;8.07;;
61572;SDS011;47465;43.094;12.434;2023-02-12T10:46:42;9.23;;;8.32;;
61572;SDS011;47465;43.094;12.434;2023-02-12T10:49:09;9.00;;;8.05;;
61572;SDS011;47465;43.094;12.434;2023-02-12T10:54:35;9.35;;;8.35;;
61572;SDS011;47465;43.094;12.434;2023-02-12T10:57:10;8.68;;;7.82;;
61572;SDS011;47465;43.094;12.434;2023-02-12T10:59:40;9.45;;;7.70;;
61572;SDS011;47465;43.094;12.434;2023-02-12T11:02:20;9.18;;;8.15;;
61572;SDS011;47465;43.094;12.434;2023-02-12T11:04:49;8.70;;;7.80;;
61572;SDS011;47465;43.094;12.434;2023-02-12T11:07:16;8.32;;;7.53;;
61572;SDS011;47465;43.094;12.434;2023-02-12T11:09:42;9.10;;;7.93;;
61572;SDS011;47465;43.094;12.434;2023-02-12T11:12:17;8.45;;;7.45;;
61572;SDS011;47465;43.094;12.434;2023-02-12T11:14:47;8.63;;;7.78;;
61572;SDS011;47465;43.094;12.434;2023-02-12T11:17:17;8.80;;;7.88;;
61572;SDS011;47465;43.094;12.434;2023-02-12T11:19:59;9.23;;;8.23;;
61572;SDS011;47465;43.094;12.434;2023-02-12T11:22:28;9.13;;;7.82;;
61572;SDS011;47465;43.094;12.434;2023-02-12T11:24:58;9.48;;;8.35;;
61572;SDS011;47465;43.094;12.434;2023-02-12T11:27:28;9.13;;;7.72;;
61572;SDS011;47465;43.094;12.434;2023-02-12T11:32:45;11.07;;;9.98;;
61572;SDS011;47465;43.094;12.434;2023-02-12T11:35:14;9.95;;;8.85;;
61572;SDS011;47465;43.094;12.434;2023-02-12T11:37:47;10.32;;;8.98;;
61572;SDS011;47465;43.094;12.434;2023-02-12T11:40:15;11.48;;;8.55;;
61572;SDS011;47465;43.094;12.434;2023-02-12T11:42:48;9.40;;;8.40;;
61572;SDS011;47465;43.094;12.434;2023-02-12T11:45:17;9.25;;;8.15;;
61572;SDS011;47465;43.094;12.434;2023-02-12T11:47:46;9.63;;;8.63;;
61572;SDS011;47465;43.094;12.434;2023-02-12T11:50:17;11.45;;;8.52;;
61572;SDS011;47465;43.094;12.434;2023-02-12T11:52:51;10.95;;;9.07;;
61572;SDS011;47465;43.094;12.434;2023-02-12T11:55:21;10.13;;;9.13;;
61572;SDS011;47465;43.094;12.434;2023-02-12T11:57:50;9.80;;;8.80;;
61572;SDS011;47465;43.094;12.434;2023-02-12T12:00:18;10.65;;;9.55;;
61572;SDS011;47465;43.094;12.434;2023-02-12T12:02:47;10.23;;;9.23;;
61572;SDS011;47465;43.094;12.434;2023-02-12T12:05:18;10.57;;;9.48;;
61572;SDS011;47465;43.094;12.434;2023-02-12T12:07:48;11.40;;;9.35;;
61572;SDS011;47465;43.094;12.434;2023-02-12T12:10:19;10.70;;;9.60;;
61572;SDS011;47465;43.094;12.434;2023-02-12T12:12:53;9.73;;;8.73;;
61572;SDS011;47465;43.094;12.434;2023-02-12T12:15:23;10.00;;;9.00;;
61572;SDS011;47465;43.094;12.434;2023-02-12T12:18:28;10.32;;;9.23;;
61572;SDS011;47465;43.094;12.434;2023-02-12T12:21:33;10.15;;;9.00;;
61572;SDS011;47465;43.094;12.434;2023-02-12T12:24:04;10.65;;;9.55;;
61572;SDS011;47465;43.094;12.434;2023-02-12T12:26:37;10.85;;;9.75;;
61572;SDS011;47465;43.094;12.434;2023-02-12T12:29:09;10.38;;;9.25;;
61572;SDS011;47465;43.094;12.434;2023-02-12T12:31:41;10.80;;;9.40;;
61572;SDS011;47465;43.094;12.434;2023-02-12T12:34:11;11.35;;;10.15;;
61572;SDS011;47465;43.094;12.434;2023-02-12T12:39:50;12.05;;;9.93;;
61572;SDS011;47465;43.094;12.434;2023-02-12T12:45:18;11.10;;;10.00;;
61572;SDS011;47465;43.094;12.434;2023-02-12T12:48:03;12.02;;;10.85;;
61572;SDS011;47465;43.094;12.434;2023-02-12T12:50:44;11.60;;;10.40;;
61572;SDS011;47465;43.094;12.434;2023-02-12T12:53:28;12.57;;;10.90;;
61572;SDS011;47465;43.094;12.434;2023-02-12T12:56:06;13.10;;;11.80;;
61572;SDS011;47465;43.094;12.434;2023-02-12T12:58:46;13.65;;;11.32;;
61572;SDS011;47465;43.094;12.434;2023-02-12T13:01:29;12.23;;;11.02;;
61572;SDS011;47465;43.094;12.434;2023-02-12T13:04:27;11.45;;;10.35;;
61572;SDS011;47465;43.094;12.434;2023-02-12T13:10:09;10.77;;;9.75;;
61572;SDS011;47465;43.094;12.434;2023-02-12T13:12:50;12.18;;;10.30;;
61572;SDS011;47465;43.094;12.434;2023-02-12T13:15:27;12.27;;;10.65;;
61572;SDS011;47465;43.094;12.434;2023-02-12T13:18:03;12.93;;;11.63;;
61572;SDS011;47465;43.094;12.434;2023-02-12T13:20:39;9.90;;;8.05;;
61572;SDS011;47465;43.094;12.434;2023-02-12T13:23:13;7.93;;;7.10;;
61572;SDS011;47465;43.094;12.434;2023-02-12T13:28:13;8.02;;;5.65;;
61572;SDS011;47465;43.094;12.434;2023-02-12T13:30:44;8.00;;;6.00;;
61572;SDS011;47465;43.094;12.434;2023-02-12T13:33:15;6.80;;;6.10;;
61572;SDS011;47465;43.094;12.434;2023-02-12T13:35:45;6.45;;;5.75;;
61572;SDS011;47465;43.094;12.434;2023-02-12T13:38:17;7.32;;;5.95;;
61572;SDS011;47465;43.094;12.434;2023-02-12T13:40:47;10.82;;;9.55;;
61572;SDS011;47465;43.094;12.434;2023-02-12T13:43:16;9.77;;;7.65;;
61572;SDS011;47465;43.094;12.434;2023-02-12T13:45:56;6.30;;;5.65;;
61572;SDS011;47465;43.094;12.434;2023-02-12T13:48:31;6.30;;;5.60;;
61572;SDS011;47465;43.094;12.434;2023-02-12T13:51:07;5.38;;;4.88;;
61572;SDS011;47465;43.094;12.434;2023-02-12T13:53:44;12.77;;;9.50;;
61572;SDS011;47465;43.094;12.434;2023-02-12T13:58:53;6.30;;;4.38;;
61572;SDS011;47465;43.094;12.434;2023-02-12T14:04:21;4.75;;;4.03;;
61572;SDS011;47465;43.094;12.434;2023-02-12T14:06:59;4.80;;;3.55;;
61572;SDS011;47465;43.094;12.434;2023-02-12T14:09:32;5.47;;;4.20;;
61572;SDS011;47465;43.094;12.434;2023-02-12T14:12:04;6.40;;;5.10;;
61572;SDS011;47465;43.094;12.434;2023-02-12T14:14:33;5.28;;;4.53;;
61572;SDS011;47465;43.094;12.434;2023-02-12T14:20:07;4.22;;;3.60;;
61572;SDS011;47465;43.094;12.434;2023-02-12T14:23:02;4.82;;;3.88;;
61572;SDS011;47465;43.094;12.434;2023-02-12T14:25:54;7.03;;;4.93;;
61572;SDS011;47465;43.094;12.434;2023-02-12T14:28:28;3.88;;;3.17;;
61572;SDS011;47465;43.094;12.434;2023-02-12T14:42:55;4.07;;;3.10;;
61572;SDS011;47465;43.094;12.434;2023-02-12T14:45:32;4.07;;;3.42;;
61572;SDS011;47465;43.094;12.434;2023-02-12T14:48:00;4.10;;;3.20;;
61572;SDS011;47465;43.094;12.434;2023-02-12T14:50:35;3.90;;;3.30;;
61572;SDS011;47465;43.094;12.434;2023-02-12T14:53:20;4.53;;;3.08;;
61572;SDS011;47465;43.094;12.434;2023-02-12T14:55:53;4.45;;;3.60;;
61572;SDS011;47465;43.094;12.434;2023-02-12T14:58:21;4.63;;;3.33;;
61572;SDS011;47465;43.094;12.434;2023-02-12T15:03:22;2.72;;;2.30;;
61572;SDS011;47465;43.094;12.434;2023-02-12T15:06:01;4.13;;;2.83;;
61572;SDS011;47465;43.094;12.434;2023-02-12T15:08:35;4.03;;;2.38;;
61572;SDS011;47465;43.094;12.434;2023-02-12T15:11:07;3.33;;;2.15;;
61572;SDS011;47465;43.094;12.434;2023-02-12T15:13:48;2.65;;;2.20;;
61572;SDS011;47465;43.094;12.434;2023-02-12T15:16:22;3.10;;;2.20;;
61572;SDS011;47465;43.094;12.434;2023-02-12T15:18:57;2.78;;;2.10;;
61572;SDS011;47465;43.094;12.434;2023-02-12T15:21:27;2.85;;;2.20;;
61572;SDS011;47465;43.094;12.434;2023-02-12T15:23:57;3.20;;;2.33;;
61572;SDS011;47465;43.094;12.434;2023-02-12T15:26:26;3.35;;;2.25;;
61572;SDS011;47465;43.094;12.434;2023-02-12T15:28:54;3.10;;;2.42;;
61572;SDS011;47465;43.094;12.434;2023-02-12T15:31:23;3.00;;;2.35;;
61572;SDS011;47465;43.094;12.434;2023-02-12T15:33:51;3.63;;;2.72;;
61572;SDS011;47465;43.094;12.434;2023-02-12T15:36:21;3.25;;;2.30;;
61572;SDS011;47465;43.094;12.434;2023-02-12T15:38:49;3.13;;;2.53;;